Time;durP1;ratioP1;P1;durP2;ratioP2;P2;SDS_P1;SDS_P2;PMS_P1;PMS_P2;Temp;Humidity;BMP_temperature;BMP_pressure;BME280_temperature;BME280_humidity;BME280_pressure;Samples;Min_cycle;Max_cycle;Signal;HPM_P1;HPM_P2
2022/01/29 00:00:08;;;;;;;29.43;19.37;;;2.10;99.90;;;;;;5054652;28;20228;-73
2022/01/29 00:02:36;;;;;;;29.80;19.27;;;2.10;99.90;;;;;;5054423;28;20221;-72
2022/01/29 00:05:03;;;;;;;27.83;18.17;;;2.20;99.90;;;;;;5055258;28;20197;-73
2022/01/29 00:07:29;;;;;;;29.97;16.93;;;2.10;99.90;;;;;;5054584;28;20206;-72
2022/01/29 00:10:02;;;;;;;26.10;17.40;;;2.10;99.90;;;;;;5055130;28;20205;-72
2022/01/29 00:12:29;;;;;;;30.63;18.27;;;2.10;99.90;;;;;;5059862;28;20661;-71
2022/01/29 00:14:56;;;;;;;28.13;17.13;;;2.10;99.90;;;;;;5057073;28;20223;-72
2022/01/29 00:17:22;;;;;;;29.47;18.37;;;2.10;99.90;;;;;;5057837;28;20251;-72
2022/01/29 00:19:50;;;;;;;30.70;17.23;;;2.10;99.90;;;;;;5062172;28;20220;-72
2022/01/29 00:22:17;;;;;;;28.30;17.70;;;2.10;99.90;;;;;;5062056;28;20689;-72
2022/01/29 00:24:44;;;;;;;31.13;17.70;;;2.10;99.90;;;;;;5062075;28;20202;-72
2022/01/29 00:27:10;;;;;;;29.03;18.30;;;2.10;99.90;;;;;;5058138;28;20235;-73
2022/01/29 00:29:39;;;;;;;33.47;19.10;;;2.10;99.90;;;;;;5060983;28;20232;-72
2022/01/29 00:32:06;;;;;;;30.43;18.43;;;2.10;99.90;;;;;;5058334;28;20210;-72
2022/01/29 00:34:33;;;;;;;29.80;18.63;;;2.00;99.90;;;;;;5054139;28;20205;-72
2022/01/29 00:37:02;;;;;;;28.87;18.40;;;2.10;99.90;;;;;;5054278;28;20205;-72
2022/01/29 00:39:29;;;;;;;29.10;17.83;;;2.10;99.90;;;;;;5053797;28;20205;-72
2022/01/29 00:41:56;;;;;;;30.87;18.87;;;2.00;99.90;;;;;;5053872;28;20229;-73
2022/01/29 00:44:22;;;;;;;33.20;18.93;;;2.00;99.90;;;;;;5054417;28;20204;-73
2022/01/29 00:46:49;;;;;;;32.13;18.97;;;2.00;99.90;;;;;;5054426;28;20193;-72
2022/01/29 00:49:16;;;;;;;27.57;17.87;;;2.00;99.90;;;;;;5054321;28;20201;-72
2022/01/29 00:51:42;;;;;;;30.23;18.23;;;2.00;99.90;;;;;;5054681;28;20197;-73
2022/01/29 00:54:10;;;;;;;28.57;17.27;;;2.00;99.90;;;;;;5054304;28;20193;-72
2022/01/29 00:56:37;;;;;;;27.73;17.20;;;2.00;99.90;;;;;;5053767;28;20713;-72
2022/01/29 00:59:04;;;;;;;26.93;16.30;;;2.00;99.90;;;;;;5053697;28;20213;-72
2022/01/29 01:01:31;;;;;;;28.60;18.00;;;2.00;99.90;;;;;;5054025;28;20225;-72
2022/01/29 01:03:58;;;;;;;26.27;16.77;;;2.00;99.90;;;;;;5054527;28;20200;-72
2022/01/29 01:06:24;;;;;;;31.57;17.43;;;2.00;99.90;;;;;;5057262;28;20209;-73
2022/01/29 01:08:51;;;;;;;29.90;16.80;;;2.00;99.90;;;;;;5055517;28;20197;-72
2022/01/29 01:11:19;;;;;;;27.23;16.87;;;2.00;99.90;;;;;;5054154;28;20205;-73
2022/01/29 01:13:46;;;;;;;27.37;16.50;;;2.00;99.90;;;;;;5056631;28;20259;-72
2022/01/29 01:16:12;;;;;;;28.07;16.90;;;2.00;99.90;;;;;;5057383;28;20201;-71
2022/01/29 01:18:39;;;;;;;28.17;16.33;;;2.00;99.90;;;;;;5057746;28;20599;-71
2022/01/29 01:21:06;;;;;;;27.83;16.03;;;2.00;99.90;;;;;;5057738;28;20432;-72
2022/01/29 01:23:32;;;;;;;22.17;15.43;;;2.00;99.90;;;;;;5057269;28;20257;-71
2022/01/29 01:26:01;;;;;;;26.57;15.60;;;1.90;99.90;;;;;;5057869;28;20197;-72
2022/01/29 01:28:29;;;;;;;26.40;16.57;;;1.90;99.90;;;;;;5057384;28;20198;-72
2022/01/29 01:30:56;;;;;;;28.07;16.07;;;1.90;99.90;;;;;;5057015;28;20209;-72
2022/01/29 01:33:23;;;;;;;22.67;14.90;;;1.90;99.90;;;;;;5057004;28;20209;-72
2022/01/29 01:35:53;;;;;;;26.33;15.53;;;1.90;99.90;;;;;;5057279;28;20198;-72
2022/01/29 01:38:23;;;;;;;25.37;16.43;;;1.90;99.90;;;;;;5057410;28;20284;-72
2022/01/29 01:40:54;;;;;;;29.53;16.33;;;1.90;99.90;;;;;;5057032;28;20207;-72
2022/01/29 01:43:21;;;;;;;25.80;15.70;;;1.80;99.90;;;;;;5056699;28;20248;-72
2022/01/29 01:45:49;;;;;;;24.97;15.57;;;1.90;99.90;;;;;;5057156;28;20251;-71
2022/01/29 01:48:16;;;;;;;29.93;16.50;;;1.90;99.90;;;;;;5056693;28;20569;-72
2022/01/29 01:50:43;;;;;;;25.87;15.27;;;1.90;99.90;;;;;;5056950;28;20542;-72
2022/01/29 01:53:10;;;;;;;28.40;16.03;;;1.90;99.90;;;;;;5056817;28;20247;-72
2022/01/29 01:55:38;;;;;;;27.80;16.47;;;1.90;99.90;;;;;;5056973;28;20205;-72
2022/01/29 01:58:05;;;;;;;24.63;15.47;;;1.80;99.90;;;;;;5056638;28;20730;-72
2022/01/29 02:00:32;;;;;;;25.87;15.67;;;1.80;99.90;;;;;;5058757;28;20194;-72
2022/01/29 02:03:00;;;;;;;27.70;15.93;;;1.90;99.90;;;;;;5057691;28;20316;-72
2022/01/29 02:05:27;;;;;;;24.67;15.13;;;1.90;99.90;;;;;;5057805;28;20232;-72
2022/01/29 02:07:54;;;;;;;25.93;14.80;;;1.90;99.90;;;;;;5057628;28;20198;-72
2022/01/29 02:10:21;;;;;;;22.47;13.70;;;1.80;99.90;;;;;;5056809;28;20232;-72
2022/01/29 02:12:49;;;;;;;25.43;15.20;;;1.90;99.90;;;;;;5056911;28;20259;-72
2022/01/29 02:15:17;;;;;;;24.17;14.97;;;1.90;99.90;;;;;;5056343;28;20228;-72
2022/01/29 02:17:45;;;;;;;23.87;13.83;;;1.90;99.90;;;;;;5056721;28;20201;-73
2022/01/29 02:20:13;;;;;;;25.27;15.83;;;1.90;99.90;;;;;;5055938;28;20205;-72
2022/01/29 02:22:42;;;;;;;25.80;14.53;;;1.90;99.90;;;;;;5056353;28;20221;-72
2022/01/29 02:25:34;;;;;;;24.83;15.27;;;1.90;99.90;;;;;;5055980;28;20685;-72
2022/01/29 02:28:04;;;;;;;26.63;15.17;;;1.90;99.90;;;;;;5056496;28;20565;-72
2022/01/29 02:30:32;;;;;;;22.53;14.27;;;1.90;99.90;;;;;;5056306;28;20455;-72
2022/01/29 02:33:00;;;;;;;22.77;13.80;;;1.90;99.90;;;;;;5056224;28;20236;-72
2022/01/29 02:35:28;;;;;;;21.97;14.77;;;1.90;99.90;;;;;;5055988;28;20202;-72
2022/01/29 02:37:56;;;;;;;24.10;15.70;;;1.90;99.90;;;;;;5056341;28;20198;-72
2022/01/29 02:40:24;;;;;;;21.80;14.23;;;1.80;99.90;;;;;;5056104;28;20249;-73
2022/01/29 02:42:53;;;;;;;21.63;14.57;;;1.90;99.90;;;;;;5055940;28;20263;-72
2022/01/29 02:45:20;;;;;;;22.07;13.70;;;1.80;99.90;;;;;;5055739;28;20194;-72
2022/01/29 02:47:47;;;;;;;27.53;14.67;;;1.80;99.90;;;;;;5055832;28;20197;-72
2022/01/29 02:50:14;;;;;;;28.47;16.20;;;1.80;99.90;;;;;;5055992;28;20271;-72
2022/01/29 02:52:40;;;;;;;22.07;14.03;;;1.80;99.90;;;;;;5056490;28;20596;-72
2022/01/29 02:55:09;;;;;;;23.23;15.70;;;1.80;99.90;;;;;;5059031;28;20631;-72
2022/01/29 02:57:37;;;;;;;23.20;14.63;;;1.80;99.90;;;;;;5061517;28;20203;-72
2022/01/29 03:00:10;;;;;;;24.63;15.60;;;1.80;99.90;;;;;;5062471;28;20214;-72
2022/01/29 03:02:37;;;;;;;21.97;14.63;;;1.80;99.90;;;;;;5062795;28;20229;-72
2022/01/29 03:05:04;;;;;;;25.07;15.23;;;1.80;99.90;;;;;;5065518;28;20601;-73
2022/01/29 03:07:31;;;;;;;24.10;14.53;;;1.80;99.90;;;;;;5064365;28;20202;-73
2022/01/29 03:09:57;;;;;;;23.87;15.07;;;1.80;99.90;;;;;;5066655;28;20198;-74
2022/01/29 03:12:26;;;;;;;25.27;15.13;;;1.70;99.90;;;;;;5062135;28;20251;-72
2022/01/29 03:14:52;;;;;;;28.03;14.43;;;1.70;99.90;;;;;;5061519;28;20205;-72
2022/01/29 03:17:19;;;;;;;27.13;16.40;;;1.70;99.90;;;;;;5062857;28;20198;-72
2022/01/29 03:19:46;;;;;;;22.57;15.37;;;1.70;99.90;;;;;;5061920;28;20225;-73
2022/01/29 03:22:12;;;;;;;23.73;15.07;;;1.70;99.90;;;;;;5057094;28;20291;-73
2022/01/29 03:24:40;;;;;;;21.57;14.90;;;1.70;99.90;;;;;;5056403;28;20247;-73
2022/01/29 03:27:06;;;;;;;22.30;15.30;;;1.70;99.90;;;;;;5058293;28;20240;-73
2022/01/29 03:29:34;;;;;;;25.13;15.37;;;1.80;99.90;;;;;;5056390;28;20608;-72
2022/01/29 03:32:01;;;;;;;28.07;17.10;;;1.80;99.90;;;;;;5055394;28;20198;-72
2022/01/29 03:34:28;;;;;;;24.60;16.33;;;1.80;99.90;;;;;;5055036;28;20608;-72
2022/01/29 03:36:56;;;;;;;24.30;16.27;;;1.70;99.90;;;;;;5054906;28;20229;-72
2022/01/29 03:39:24;;;;;;;28.50;17.03;;;1.80;99.90;;;;;;5055676;28;20811;-73
2022/01/29 03:41:51;;;;;;;24.90;16.60;;;1.70;99.90;;;;;;5055603;28;20216;-73
2022/01/29 03:44:18;;;;;;;29.60;17.77;;;1.80;99.90;;;;;;5054837;28;20221;-73
2022/01/29 03:46:47;;;;;;;25.07;16.60;;;1.80;99.90;;;;;;5055182;28;20198;-72
2022/01/29 03:49:14;;;;;;;24.90;16.00;;;1.70;99.90;;;;;;5055160;28;20198;-72
2022/01/29 03:51:41;;;;;;;28.50;16.57;;;1.80;99.90;;;;;;5057545;28;20202;-72
2022/01/29 03:54:07;;;;;;;26.00;15.97;;;1.70;99.90;;;;;;5054777;28;20263;-72
2022/01/29 03:56:34;;;;;;;25.17;14.57;;;1.70;99.90;;;;;;5054548;28;20565;-72
2022/01/29 03:59:02;;;;;;;23.53;14.37;;;1.70;99.90;;;;;;5054200;28;20212;-72
2022/01/29 04:01:28;;;;;;;25.90;16.23;;;1.70;99.90;;;;;;5054715;28;20198;-72
2022/01/29 04:03:57;;;;;;;24.30;15.73;;;1.70;99.90;;;;;;5055371;28;20230;-72
2022/01/29 04:06:24;;;;;;;24.93;15.47;;;1.70;99.90;;;;;;5055434;28;20198;-72
2022/01/29 04:08:51;;;;;;;25.37;15.67;;;1.60;99.90;;;;;;5055373;28;20198;-72
2022/01/29 04:11:18;;;;;;;22.57;14.50;;;1.70;99.90;;;;;;5055747;28;20280;-73
2022/01/29 04:13:47;;;;;;;28.00;17.27;;;1.60;99.90;;;;;;5055744;28;20228;-72
2022/01/29 04:16:15;;;;;;;24.80;14.73;;;1.60;99.90;;;;;;5054568;28;20197;-73
2022/01/29 04:18:42;;;;;;;27.30;15.30;;;1.60;99.90;;;;;;5054600;28;20198;-73
2022/01/29 04:21:10;;;;;;;23.57;14.87;;;1.60;99.90;;;;;;5055290;28;20225;-73
2022/01/29 04:23:37;;;;;;;23.13;14.17;;;1.60;99.90;;;;;;5054719;28;20233;-73
2022/01/29 04:26:05;;;;;;;25.07;15.13;;;1.70;99.90;;;;;;5054696;28;20198;-73
2022/01/29 04:28:37;;;;;;;22.43;15.13;;;1.70;99.90;;;;;;5054340;28;20244;-73
2022/01/29 04:31:09;;;;;;;24.40;15.53;;;1.70;99.90;;;;;;5054747;28;20197;-73
2022/01/29 04:33:36;;;;;;;27.03;15.87;;;1.60;99.90;;;;;;5054231;28;20569;-73
2022/01/29 04:36:05;;;;;;;25.37;14.80;;;1.60;99.90;;;;;;5053960;28;20553;-71
2022/01/29 04:38:34;;;;;;;26.73;14.97;;;1.60;99.90;;;;;;5054071;28;20729;-71
2022/01/29 04:41:04;;;;;;;25.60;15.47;;;1.60;99.90;;;;;;5053983;28;20251;-72
2022/01/29 04:43:32;;;;;;;28.67;16.03;;;1.60;99.90;;;;;;5054190;28;20248;-72
2022/01/29 04:45:59;;;;;;;23.20;14.00;;;1.60;99.90;;;;;;5058807;28;20197;-72
2022/01/29 04:48:27;;;;;;;27.63;15.83;;;1.60;99.90;;;;;;5053621;28;20197;-72
2022/01/29 04:50:53;;;;;;;23.13;14.73;;;1.60;99.90;;;;;;5053528;28;20684;-72
2022/01/29 04:53:20;;;;;;;25.93;15.57;;;1.60;99.90;;;;;;5053743;28;20208;-72
2022/01/29 04:55:48;;;;;;;25.00;15.97;;;1.60;99.90;;;;;;5053493;28;20714;-72
2022/01/29 04:58:15;;;;;;;22.00;14.90;;;1.70;99.90;;;;;;5053534;28;20715;-73
2022/01/29 05:00:42;;;;;;;24.53;14.87;;;1.60;99.90;;;;;;5053582;28;20193;-72
2022/01/29 05:03:11;;;;;;;24.40;14.93;;;1.70;99.90;;;;;;5053453;28;20232;-73
2022/01/29 05:05:38;;;;;;;22.37;15.17;;;1.70;99.90;;;;;;5053407;28;20221;-73
2022/01/29 05:08:05;;;;;;;24.33;15.17;;;1.70;99.90;;;;;;5053713;28;20198;-73
2022/01/29 05:10:32;;;;;;;26.90;16.63;;;1.70;99.90;;;;;;5053490;28;20193;-72
2022/01/29 05:13:04;;;;;;;25.43;15.00;;;1.60;99.90;;;;;;5053303;28;20646;-73
2022/01/29 05:15:38;;;;;;;29.03;15.30;;;1.70;99.90;;;;;;5053808;28;20244;-72
2022/01/29 05:29:05;;;;;;;27.23;15.33;;;1.60;99.90;;;;;;5053723;28;20200;-72
2022/01/29 05:31:32;;;;;;;27.27;16.73;;;1.60;99.90;;;;;;5053932;28;20251;-72
2022/01/29 05:34:00;;;;;;;28.70;16.73;;;1.60;99.90;;;;;;5054003;28;20232;-72
2022/01/29 05:36:27;;;;;;;24.53;16.43;;;1.60;99.90;;;;;;5053755;28;20198;-71
2022/01/29 05:38:53;;;;;;;29.67;18.27;;;1.60;99.90;;;;;;5054191;28;20198;-73
2022/01/29 05:41:21;;;;;;;27.13;16.60;;;1.60;99.90;;;;;;5057809;28;20198;-73
2022/01/29 05:43:48;;;;;;;33.97;17.40;;;1.60;99.90;;;;;;5053723;28;20638;-73
2022/01/29 05:46:17;;;;;;;26.07;17.40;;;1.60;99.90;;;;;;5053811;28;20216;-73
2022/01/29 05:48:44;;;;;;;29.60;17.77;;;1.60;99.90;;;;;;5054047;28;20612;-72
2022/01/29 05:51:11;;;;;;;27.73;18.30;;;1.60;99.90;;;;;;5054833;28;20198;-73
2022/01/29 05:53:38;;;;;;;34.97;19.07;;;1.60;99.90;;;;;;5054410;28;20251;-73
2022/01/29 05:56:06;;;;;;;31.50;19.67;;;1.60;99.90;;;;;;5058149;28;20197;-73
2022/01/29 05:58:32;;;;;;;30.10;18.90;;;1.60;99.90;;;;;;5059137;28;20660;-72
2022/01/29 06:00:59;;;;;;;33.70;19.57;;;1.60;99.90;;;;;;5063631;28;20718;-72
2022/01/29 06:03:27;;;;;;;29.27;19.23;;;1.60;99.90;;;;;;5062399;28;20218;-72
2022/01/29 06:05:54;;;;;;;31.43;20.10;;;1.70;99.90;;;;;;5062050;28;20197;-72
2022/01/29 06:08:20;;;;;;;32.13;19.43;;;1.70;99.90;;;;;;5063727;28;20202;-73
2022/01/29 06:10:47;;;;;;;30.40;18.90;;;1.70;99.90;;;;;;5057036;28;20757;-72
2022/01/29 06:13:16;;;;;;;36.00;20.50;;;1.70;99.90;;;;;;5056786;28;20255;-72
2022/01/29 06:15:45;;;;;;;30.33;19.03;;;1.70;99.90;;;;;;5056662;28;20193;-72
2022/01/29 06:18:17;;;;;;;32.87;19.80;;;1.70;99.90;;;;;;5056962;28;20220;-72
2022/01/29 06:20:47;;;;;;;30.93;18.13;;;1.70;99.90;;;;;;5056484;28;20693;-72
2022/01/29 06:23:15;;;;;;;32.60;19.80;;;1.70;99.90;;;;;;5056845;28;20217;-72
2022/01/29 06:25:42;;;;;;;32.80;19.33;;;1.70;99.90;;;;;;5057280;28;20201;-72
2022/01/29 06:28:09;;;;;;;29.60;19.23;;;1.70;99.90;;;;;;5058387;28;20208;-73
2022/01/29 06:30:36;;;;;;;30.43;18.10;;;1.70;99.90;;;;;;5060526;28;20209;-72
2022/01/29 06:33:10;;;;;;;32.47;20.70;;;1.70;99.90;;;;;;5060448;28;20202;-72
2022/01/29 06:35:37;;;;;;;32.97;19.57;;;1.70;99.90;;;;;;5065215;28;20208;-73
2022/01/29 06:38:06;;;;;;;34.30;20.30;;;1.80;99.90;;;;;;5066732;28;20255;-73
2022/01/29 06:40:33;;;;;;;32.60;21.37;;;1.80;99.90;;;;;;5067351;28;20201;-72
2022/01/29 06:43:01;;;;;;;35.23;21.23;;;1.80;99.90;;;;;;5065314;28;20205;-72
2022/01/29 06:45:28;;;;;;;33.97;21.17;;;1.80;99.90;;;;;;5064459;28;20738;-72
2022/01/29 06:47:55;;;;;;;33.23;22.60;;;1.90;99.90;;;;;;5063768;28;20201;-72
2022/01/29 06:50:22;;;;;;;32.97;21.23;;;1.80;99.90;;;;;;5063758;28;20201;-72
2022/01/29 06:52:48;;;;;;;36.00;22.77;;;1.80;99.90;;;;;;5064231;28;20205;-72
2022/01/29 06:55:16;;;;;;;29.87;19.97;;;1.80;99.90;;;;;;5063185;28;20251;-72
2022/01/29 06:57:43;;;;;;;29.50;19.43;;;1.80;99.90;;;;;;5062236;28;20202;-72
2022/01/29 07:00:11;;;;;;;31.27;21.33;;;1.80;99.90;;;;;;5061942;28;20194;-72
2022/01/29 07:02:38;;;;;;;31.00;20.83;;;1.90;99.90;;;;;;5061543;28;20198;-72
2022/01/29 07:05:06;;;;;;;31.70;19.33;;;1.90;99.90;;;;;;5060106;28;20283;-72
2022/01/29 07:07:33;;;;;;;27.77;18.13;;;1.90;99.90;;;;;;5060606;28;20232;-72
2022/01/29 07:10:00;;;;;;;29.47;19.67;;;1.90;99.90;;;;;;5060228;28;20204;-71
2022/01/29 07:12:28;;;;;;;28.30;17.80;;;1.90;99.90;;;;;;5061877;28;20248;-72
2022/01/29 07:14:55;;;;;;;24.60;17.57;;;1.90;99.90;;;;;;5061301;28;20206;-73
2022/01/29 07:17:23;;;;;;;27.47;17.60;;;1.90;99.90;;;;;;5061249;28;20228;-73
2022/01/29 07:19:51;;;;;;;29.47;18.50;;;1.90;99.90;;;;;;5062115;28;20220;-73
2022/01/29 07:22:18;;;;;;;25.33;17.17;;;1.90;99.90;;;;;;5058935;28;20229;-74
2022/01/29 07:24:46;;;;;;;28.77;18.20;;;1.90;99.90;;;;;;5056883;28;20225;-72
2022/01/29 07:27:14;;;;;;;25.03;16.70;;;1.90;99.90;;;;;;5062799;28;20205;-72
2022/01/29 07:29:42;;;;;;;22.10;14.17;;;1.80;99.90;;;;;;5061391;28;20202;-73
2022/01/29 07:32:09;;;;;;;24.20;15.90;;;1.80;99.90;;;;;;5061722;28;20225;-73
2022/01/29 07:34:36;;;;;;;27.37;17.00;;;1.80;99.90;;;;;;5061862;28;20611;-73
2022/01/29 07:37:03;;;;;;;23.53;15.57;;;1.80;99.90;;;;;;5060337;28;20649;-72
2022/01/29 07:39:30;;;;;;;24.07;16.37;;;1.80;99.90;;;;;;5060579;28;20623;-73
2022/01/29 07:41:57;;;;;;;23.13;15.33;;;1.80;99.90;;;;;;5059861;28;20202;-72
2022/01/29 07:44:24;;;;;;;27.60;16.90;;;1.80;99.90;;;;;;5060933;28;20225;-72
2022/01/29 07:46:53;;;;;;;25.57;16.77;;;1.80;99.90;;;;;;5060251;28;20216;-71
2022/01/29 07:49:20;;;;;;;21.77;14.83;;;1.80;99.90;;;;;;5059260;28;20201;-72
2022/01/29 07:51:46;;;;;;;21.97;14.93;;;1.80;99.90;;;;;;5059753;28;20193;-72
2022/01/29 07:54:13;;;;;;;21.03;13.83;;;1.80;99.90;;;;;;5059181;28;20247;-72
2022/01/29 07:56:40;;;;;;;22.57;14.10;;;1.80;99.90;;;;;;5060159;28;20259;-71
2022/01/29 07:59:07;;;;;;;21.57;13.73;;;1.80;99.90;;;;;;5060012;28;20223;-72
2022/01/29 08:01:33;;;;;;;21.33;13.63;;;1.80;99.90;;;;;;5059319;28;20225;-71
2022/01/29 08:04:01;;;;;;;22.00;13.67;;;1.80;99.90;;;;;;5059181;28;20221;-72
2022/01/29 08:06:29;;;;;;;20.73;14.10;;;1.80;99.90;;;;;;5058154;28;20202;-71
2022/01/29 08:08:56;;;;;;;21.37;13.20;;;1.80;99.90;;;;;;5056824;28;20220;-71
2022/01/29 08:11:23;;;;;;;20.30;13.43;;;1.80;99.90;;;;;;5057840;28;20661;-71
2022/01/29 08:13:49;;;;;;;18.60;11.93;;;1.80;99.90;;;;;;5056724;28;20657;-71
2022/01/29 08:16:16;;;;;;;20.43;12.60;;;1.80;99.90;;;;;;5056880;28;20197;-71
2022/01/29 08:18:45;;;;;;;22.67;13.73;;;1.80;99.90;;;;;;5059799;28;20202;-71
2022/01/29 08:21:13;;;;;;;22.57;13.60;;;1.80;99.90;;;;;;5059836;28;20229;-71
2022/01/29 08:23:40;;;;;;;18.97;12.30;;;1.80;99.90;;;;;;5060787;28;20259;-71
2022/01/29 08:26:07;;;;;;;19.97;13.50;;;1.80;99.90;;;;;;5061559;28;20198;-72
2022/01/29 08:28:34;;;;;;;22.63;13.70;;;1.80;99.90;;;;;;5060083;28;20201;-71
2022/01/29 08:31:00;;;;;;;22.07;13.77;;;1.80;99.90;;;;;;5060140;28;20217;-71
2022/01/29 08:33:27;;;;;;;19.47;13.33;;;1.80;99.90;;;;;;5060529;28;20653;-72
2022/01/29 08:35:54;;;;;;;20.70;12.73;;;1.80;99.90;;;;;;5060413;28;20557;-72
2022/01/29 08:38:22;;;;;;;26.37;14.80;;;1.80;99.90;;;;;;5059488;28;20201;-72
2022/01/29 08:40:49;;;;;;;23.87;13.87;;;1.80;99.90;;;;;;5059094;28;20214;-72
2022/01/29 08:43:16;;;;;;;21.33;13.23;;;1.80;99.90;;;;;;5056388;28;20202;-72
2022/01/29 08:45:43;;;;;;;20.90;13.67;;;1.80;99.90;;;;;;5056868;28;20233;-72
2022/01/29 08:48:09;;;;;;;24.53;14.00;;;1.80;99.90;;;;;;5061201;28;20673;-72
2022/01/29 08:50:36;;;;;;;22.60;13.73;;;1.80;99.90;;;;;;5061592;28;20205;-71
2022/01/29 08:53:03;;;;;;;24.83;14.97;;;1.80;99.90;;;;;;5060404;28;20252;-73
2022/01/29 08:55:36;;;;;;;21.83;12.80;;;1.80;99.90;;;;;;5061183;28;20616;-72
2022/01/29 08:58:03;;;;;;;25.77;14.63;;;1.80;99.90;;;;;;5060896;28;20585;-73
2022/01/29 09:00:30;;;;;;;25.10;13.90;;;1.80;99.90;;;;;;5060175;28;20201;-72
2022/01/29 09:02:57;;;;;;;21.90;14.53;;;1.80;99.90;;;;;;5061473;28;20235;-72
2022/01/29 09:05:23;;;;;;;22.60;14.90;;;1.80;99.90;;;;;;5061398;28;20230;-72
2022/01/29 09:07:50;;;;;;;22.87;14.07;;;1.90;99.90;;;;;;5060785;28;20201;-72
2022/01/29 09:10:17;;;;;;;25.43;15.00;;;1.90;99.90;;;;;;5060209;28;20205;-72
2022/01/29 09:12:45;;;;;;;23.13;14.40;;;1.90;99.90;;;;;;5060112;28;20220;-72
2022/01/29 09:15:12;;;;;;;23.40;13.53;;;2.00;99.90;;;;;;5059477;28;20224;-72
2022/01/29 09:17:40;;;;;;;24.13;13.87;;;2.00;99.90;;;;;;5059136;28;20197;-72
2022/01/29 09:20:09;;;;;;;23.03;13.63;;;2.00;99.90;;;;;;5060573;28;20202;-72
2022/01/29 09:22:36;;;;;;;21.30;12.53;;;2.00;99.90;;;;;;5059975;28;20228;-72
2022/01/29 09:25:03;;;;;;;26.70;14.17;;;2.10;99.90;;;;;;5060801;28;20225;-72
2022/01/29 09:27:30;;;;;;;22.27;14.17;;;2.00;99.90;;;;;;5059178;28;20194;-72
2022/01/29 09:29:58;;;;;;;24.93;15.47;;;2.10;99.90;;;;;;5060678;28;20201;-72
2022/01/29 09:32:25;;;;;;;24.37;14.90;;;2.10;99.90;;;;;;5060482;28;20206;-71
2022/01/29 09:34:52;;;;;;;25.50;15.20;;;2.20;99.90;;;;;;5062933;28;20201;-72
2022/01/29 09:37:18;;;;;;;27.10;15.90;;;2.20;99.90;;;;;;5064977;28;20228;-72
2022/01/29 09:39:46;;;;;;;22.83;14.60;;;2.30;99.90;;;;;;5063249;28;20231;-72
2022/01/29 09:42:13;;;;;;;28.87;14.77;;;2.40;99.90;;;;;;5063250;28;20653;-72
2022/01/29 09:44:41;;;;;;;16.93;11.87;;;2.40;99.90;;;;;;5061374;28;20221;-72
2022/01/29 09:47:10;;;;;;;21.47;13.47;;;2.30;99.90;;;;;;5063555;28;20664;-71
2022/01/29 09:49:37;;;;;;;24.40;15.73;;;2.30;99.90;;;;;;5064401;28;20208;-71
2022/01/29 09:52:04;;;;;;;29.30;17.50;;;2.20;99.90;;;;;;5060461;28;20201;-71
2022/01/29 09:54:31;;;;;;;27.00;16.47;;;2.20;99.90;;;;;;5059660;28;20706;-71
2022/01/29 09:56:58;;;;;;;26.30;15.43;;;2.20;99.90;;;;;;5058542;28;20202;-71
2022/01/29 09:59:24;;;;;;;27.07;15.60;;;2.10;99.90;;;;;;5060626;28;20210;-71
2022/01/29 10:01:51;;;;;;;29.57;18.07;;;2.10;99.90;;;;;;5060279;28;20194;-71
2022/01/29 10:04:19;;;;;;;28.03;17.77;;;2.10;99.90;;;;;;5057640;28;20213;-71
2022/01/29 10:06:47;;;;;;;30.53;17.53;;;2.10;99.90;;;;;;5056771;28;20204;-71
2022/01/29 10:09:35;;;;;;;31.17;17.50;;;2.10;99.90;;;;;;5056968;28;20225;-71
2022/01/29 10:12:16;;;;;;;24.87;16.70;;;2.10;99.90;;;;;;5056983;28;20207;-71
2022/01/29 10:14:56;;;;;;;28.80;17.83;;;2.20;99.90;;;;;;5058499;28;20596;-71
2022/01/29 10:17:44;;;;;;;25.73;16.60;;;2.20;99.90;;;;;;5057153;28;20207;-71
2022/01/29 10:20:14;;;;;;;23.57;15.07;;;2.30;99.90;;;;;;5062722;28;20202;-71
2022/01/29 10:22:42;;;;;;;25.13;15.53;;;2.40;99.90;;;;;;5057733;28;20201;-71
2022/01/29 10:25:12;;;;;;;21.23;14.13;;;2.40;99.90;;;;;;5057142;28;20365;-71
2022/01/29 10:27:40;;;;;;;22.60;15.03;;;2.50;99.90;;;;;;5060452;28;20205;-72
2022/01/29 10:30:10;;;;;;;22.27;14.33;;;2.60;99.90;;;;;;5063276;28;20194;-71
2022/01/29 10:32:36;;;;;;;21.80;14.67;;;2.60;99.90;;;;;;5060565;28;20698;-71
2022/01/29 10:35:03;;;;;;;23.93;14.27;;;2.60;99.90;;;;;;5061372;28;20649;-71
2022/01/29 10:37:31;;;;;;;22.87;14.27;;;2.70;99.90;;;;;;5061610;28;20608;-71
2022/01/29 10:40:01;;;;;;;22.23;14.90;;;2.70;99.90;;;;;;5059784;28;20645;-71
2022/01/29 10:42:30;;;;;;;22.30;14.40;;;2.70;99.90;;;;;;5061333;28;20216;-71
2022/01/29 10:45:01;;;;;;;21.10;14.13;;;2.60;99.90;;;;;;5055881;28;20221;-72
2022/01/29 10:47:28;;;;;;;19.97;13.13;;;2.80;99.90;;;;;;5056041;28;20202;-71
2022/01/29 10:49:59;;;;;;;19.00;12.77;;;2.70;99.90;;;;;;5057019;28;20256;-71
2022/01/29 10:52:28;;;;;;;19.57;11.87;;;2.80;99.90;;;;;;5057990;28;20205;-72
2022/01/29 10:55:02;;;;;;;18.20;12.87;;;2.80;99.90;;;;;;5059510;28;20297;-72
2022/01/29 10:57:33;;;;;;;21.03;12.33;;;2.80;99.90;;;;;;5059636;28;20225;-72
2022/01/29 11:00:01;;;;;;;16.43;11.73;;;2.70;99.90;;;;;;5060015;28;20236;-79
2022/01/29 11:02:30;;;;;;;16.30;11.80;;;2.70;99.90;;;;;;5061175;28;20263;-76
2022/01/29 11:05:00;;;;;;;18.00;11.83;;;2.70;99.90;;;;;;5061973;28;20236;-72
2022/01/29 11:07:29;;;;;;;17.77;11.77;;;2.70;99.90;;;;;;5059641;28;20198;-72
2022/01/29 11:10:02;;;;;;;15.97;11.63;;;2.60;99.90;;;;;;5061091;28;20623;-72
2022/01/29 11:12:30;;;;;;;16.97;11.53;;;2.70;99.90;;;;;;5061827;28;20198;-73
2022/01/29 11:14:59;;;;;;;14.60;10.67;;;2.70;99.90;;;;;;5061883;28;20593;-72
2022/01/29 11:17:27;;;;;;;15.63;10.77;;;2.70;99.90;;;;;;5058692;28;20661;-72
2022/01/29 11:19:54;;;;;;;19.60;14.27;;;2.60;99.90;;;;;;5056696;28;20208;-72
2022/01/29 11:22:22;;;;;;;16.87;12.43;;;2.70;99.90;;;;;;5055667;28;20233;-72
2022/01/29 11:24:55;;;;;;;15.10;10.17;;;2.70;99.90;;;;;;5056202;28;20283;-72
2022/01/29 11:27:25;;;;;;;17.83;12.23;;;2.70;99.90;;;;;;5055594;28;20202;-73
2022/01/29 11:30:00;;;;;;;15.93;11.03;;;2.60;99.90;;;;;;5056366;28;20251;-72
2022/01/29 11:32:29;;;;;;;17.77;12.53;;;2.70;99.90;;;;;;5054830;28;20201;-73
2022/01/29 11:35:11;;;;;;;18.43;11.53;;;2.70;99.90;;;;;;5058291;28;20202;-72
2022/01/29 11:37:44;;;;;;;13.53;9.10;;;2.70;99.90;;;;;;5060488;28;20209;-73
2022/01/29 11:40:30;;;;;;;16.37;11.20;;;2.70;99.90;;;;;;5060706;28;20202;-73
2022/01/29 11:43:24;;;;;;;15.03;10.30;;;2.80;99.90;;;;;;5060870;28;20219;-73
2022/01/29 11:45:55;;;;;;;12.17;9.20;;;2.80;99.90;;;;;;5061393;28;20229;-72
2022/01/29 11:48:51;;;;;;;15.73;9.83;;;2.80;99.90;;;;;;5058897;28;20721;-72
2022/01/29 11:51:40;;;;;;;11.30;8.00;;;2.80;99.90;;;;;;5056357;28;20200;-71
2022/01/29 11:54:07;;;;;;;12.03;8.50;;;2.90;99.90;;;;;;5058058;28;20203;-71
2022/01/29 11:56:36;;;;;;;11.23;7.77;;;3.00;99.90;;;;;;5056115;28;20205;-71
2022/01/29 11:59:30;;;;;;;10.23;7.33;;;3.10;99.90;;;;;;5055078;28;20201;-72
2022/01/29 12:01:59;;;;;;;9.93;7.33;;;3.10;99.90;;;;;;5054860;28;20198;-71
2022/01/29 12:05:03;;;;;;;9.77;7.20;;;3.10;99.90;;;;;;5055313;28;20561;-71
2022/01/29 12:07:33;;;;;;;9.07;7.03;;;3.20;99.90;;;;;;5054451;28;20203;-72
2022/01/29 12:10:02;;;;;;;9.93;7.30;;;3.20;99.90;;;;;;5054461;28;20282;-72
2022/01/29 12:12:32;;;;;;;10.57;7.47;;;3.20;99.90;;;;;;5054723;28;20197;-72
2022/01/29 12:15:38;;;;;;;10.23;7.00;;;3.20;99.90;;;;;;5055231;28;20198;-72
2022/01/29 12:18:25;;;;;;;8.90;6.93;;;3.30;99.90;;;;;;5054961;28;20251;-72
2022/01/29 12:20:51;;;;;;;9.67;7.53;;;3.30;99.90;;;;;;5055508;28;20227;-73
2022/01/29 12:23:18;;;;;;;10.17;7.60;;;3.30;99.90;;;;;;5054741;28;20202;-72
2022/01/29 12:25:53;;;;;;;8.73;6.83;;;3.40;99.90;;;;;;5054158;28;20246;-72
2022/01/29 12:28:20;;;;;;;11.13;7.60;;;3.40;99.90;;;;;;5054494;28;20197;-70
2022/01/29 12:30:48;;;;;;;9.87;7.07;;;3.40;99.90;;;;;;5054154;28;20199;-71
2022/01/29 12:33:16;;;;;;;10.40;7.50;;;3.30;99.90;;;;;;5054295;28;20198;-71
2022/01/29 12:35:45;;;;;;;8.93;6.67;;;3.30;99.90;;;;;;5054079;28;20205;-71
2022/01/29 12:38:15;;;;;;;10.93;7.67;;;3.30;99.90;;;;;;5054455;28;20198;-71
2022/01/29 12:40:50;;;;;;;10.67;7.60;;;3.30;99.90;;;;;;5053716;28;20650;-72
2022/01/29 12:43:25;;;;;;;9.67;6.87;;;3.30;99.90;;;;;;5054195;28;20197;-71
2022/01/29 12:45:54;;;;;;;10.57;7.30;;;3.40;99.90;;;;;;5054095;28;20226;-71
2022/01/29 12:48:21;;;;;;;9.10;6.73;;;3.50;99.90;;;;;;5054111;28;20203;-71
2022/01/29 12:50:48;;;;;;;10.73;6.83;;;3.60;99.90;;;;;;5054273;28;20197;-72
2022/01/29 12:53:17;;;;;;;9.60;6.37;;;3.60;99.90;;;;;;5054206;28;20608;-72
2022/01/29 12:55:44;;;;;;;7.43;5.77;;;3.50;99.90;;;;;;5053967;28;20214;-72